createdAt,value
2023-01-17T00:01:22.991Z,89481.84
2023-01-17T00:03:50.031Z,89485.03
2023-01-17T00:06:16.899Z,89487.34
2023-01-17T00:08:44.031Z,89488.69
2023-01-17T00:11:11.296Z,89492.81
2023-01-17T00:13:38.336Z,89504.56
2023-01-17T00:16:05.471Z,89490.72
2023-01-17T00:18:32.393Z,89492.81
2023-01-17T00:20:59.294Z,89491.13
2023-01-17T00:23:26.607Z,89486.84
2023-01-17T00:25:53.857Z,89497.63
2023-01-17T00:28:20.743Z,89496.56
2023-01-17T00:30:47.716Z,89497.22
2023-01-17T00:33:14.693Z,89498.16
2023-01-17T00:35:41.772Z,89507.81
2023-01-17T00:38:14.159Z,89491.09
2023-01-17T00:40:43.541Z,89490.50
2023-01-17T00:43:14.813Z,89484.69
2023-01-17T00:45:44.014Z,89484.50
2023-01-17T00:48:10.903Z,89489.88
2023-01-17T00:50:38.062Z,89494.69
2023-01-17T00:53:05.862Z,89494.84
2023-01-17T00:55:33.762Z,89489.38
2023-01-17T00:58:09.584Z,89504.88
2023-01-17T01:00:36.570Z,89505.00
2023-01-17T01:03:09.390Z,89489.22
2023-01-17T01:05:38.064Z,89495.56
2023-01-17T01:08:26.001Z,89496.28
2023-01-17T01:10:52.983Z,89494.50
2023-01-17T01:13:24.098Z,89488.38
2023-01-17T01:15:50.985Z,89482.69
2023-01-17T01:18:18.065Z,89482.09
2023-01-17T01:20:44.890Z,89485.75
2023-01-17T01:23:11.880Z,89485.47
2023-01-17T01:25:38.711Z,89474.94
2023-01-17T01:28:09.991Z,89482.47
2023-01-17T01:30:36.912Z,89482.47
2023-01-17T01:33:12.049Z,89479.66
2023-01-17T01:35:38.876Z,89479.75
2023-01-17T01:38:05.920Z,89479.81
2023-01-17T01:40:32.868Z,89472.69
2023-01-17T01:43:01.854Z,89466.09
2023-01-17T01:45:31.027Z,89478.50
2023-01-17T01:48:27.181Z,89469.56
2023-01-17T01:50:54.228Z,89467.88
2023-01-17T01:53:21.947Z,89478.13
2023-01-17T01:55:51.122Z,89473.50
2023-01-17T01:58:28.905Z,89481.41
2023-01-17T02:00:55.991Z,89469.88
2023-01-17T02:03:32.043Z,89476.53
2023-01-17T02:06:07.262Z,89475.13
2023-01-17T02:08:34.830Z,89470.19
2023-01-17T02:11:03.311Z,89459.13
2023-01-17T02:13:30.775Z,89472.47
2023-01-17T02:15:57.738Z,89478.84
2023-01-17T02:18:53.812Z,89485.19
2023-01-17T02:21:34.411Z,89476.94
2023-01-17T02:24:25.995Z,89486.28
2023-01-17T02:27:48.396Z,89482.97
2023-01-17T02:30:38.162Z,89482.00
2023-01-17T02:33:25.263Z,89488.53
2023-01-17T02:35:59.989Z,89493.97
2023-01-17T02:38:56.135Z,89485.06
2023-01-17T02:41:29.852Z,89490.03
2023-01-17T02:43:57.194Z,89486.78
2023-01-17T02:46:24.503Z,89484.59
2023-01-17T02:48:52.397Z,89492.03
2023-01-17T02:51:22.051Z,89491.00
2023-01-17T02:54:13.848Z,89495.91
2023-01-17T02:56:48.043Z,89504.50
2023-01-17T02:59:36.117Z,89495.28
2023-01-17T03:02:35.052Z,89499.72
2023-01-17T03:05:05.052Z,89504.88
2023-01-17T03:07:33.297Z,89503.66
2023-01-17T03:10:02.923Z,89501.38
2023-01-17T03:12:32.226Z,89507.59
2023-01-17T03:14:59.292Z,89504.63
2023-01-17T03:17:31.627Z,89510.28
2023-01-17T03:19:59.203Z,89515.84
2023-01-17T03:22:26.157Z,89514.69
2023-01-17T03:24:53.042Z,89508.47
2023-01-17T03:27:20.041Z,89509.38
2023-01-17T03:29:46.983Z,89510.72
2023-01-17T03:32:14.014Z,89516.84
2023-01-17T03:34:40.978Z,89513.78
2023-01-17T03:37:07.976Z,89521.63
2023-01-17T03:39:34.768Z,89527.41
2023-01-17T03:42:01.994Z,89526.38
2023-01-17T03:44:28.929Z,89527.75
2023-01-17T03:46:55.952Z,89524.41
2023-01-17T03:49:22.942Z,89526.31
2023-01-17T03:51:49.902Z,89528.28
2023-01-17T03:54:16.921Z,89544.44
2023-01-17T03:56:44.002Z,89541.31
2023-01-17T03:59:13.053Z,89542.88
2023-01-17T04:01:40.340Z,89548.63
2023-01-17T04:04:07.464Z,89548.75
2023-01-17T04:06:34.346Z,89541.13
2023-01-17T04:09:01.309Z,89541.25
2023-01-17T04:11:28.694Z,89539.13
2023-01-17T04:13:55.666Z,89552.53
2023-01-17T04:16:28.494Z,89558.66
2023-01-17T04:18:55.794Z,89564.19
2023-01-17T04:21:22.975Z,89564.09
2023-01-17T04:23:50.380Z,89564.78
2023-01-17T04:26:17.359Z,89562.84
2023-01-17T04:28:44.539Z,89565.38
2023-01-17T04:31:16.331Z,89565.94
2023-01-17T04:33:43.497Z,89569.94
2023-01-17T04:36:10.345Z,89571.03
2023-01-17T04:38:37.504Z,89577.28
2023-01-17T04:41:04.811Z,89576.38
2023-01-17T04:43:31.710Z,89578.44
2023-01-17T04:45:59.301Z,89581.53
2023-01-17T04:48:26.587Z,89587.19
2023-01-17T04:51:03.718Z,89584.84
2023-01-17T04:53:31.167Z,89587.78
2023-01-17T04:55:58.359Z,89589.34
2023-01-17T04:58:25.333Z,89594.50
2023-01-17T05:00:52.182Z,89589.81
2023-01-17T05:03:20.551Z,89597.91
2023-01-17T05:05:47.651Z,89597.72
2023-01-17T05:08:15.197Z,89594.94
2023-01-17T05:10:42.106Z,89604.59
2023-01-17T05:13:11.098Z,89602.78
2023-01-17T05:15:38.410Z,89598.72
2023-01-17T05:18:05.429Z,89613.44
2023-01-17T05:20:32.378Z,89603.66
2023-01-17T05:22:59.404Z,89620.38
2023-01-17T05:25:28.846Z,89624.53
2023-01-17T05:27:56.155Z,89626.97
2023-01-17T05:30:23.447Z,89629.91
2023-01-17T05:32:54.902Z,89623.50
2023-01-17T05:35:24.993Z,89632.50
2023-01-17T05:37:53.288Z,89633.53
2023-01-17T05:40:22.684Z,89639.34
2023-01-17T05:42:52.198Z,89638.72
2023-01-17T05:45:21.063Z,89648.13
2023-01-17T05:47:50.196Z,89645.44
2023-01-17T05:50:29.241Z,89659.81
2023-01-17T05:53:11.389Z,89661.75
2023-01-17T05:55:38.546Z,89663.72
2023-01-17T05:58:06.874Z,89660.19
2023-01-17T06:00:33.906Z,89663.50
2023-01-17T06:03:01.389Z,89665.31
2023-01-17T06:05:29.820Z,89661.28
2023-01-17T06:07:57.289Z,89665.75
2023-01-17T06:10:25.338Z,89669.22
2023-01-17T06:13:20.627Z,89667.13
2023-01-17T06:15:48.376Z,89664.34
2023-01-17T06:18:17.626Z,89666.13
2023-01-17T06:20:45.317Z,89676.34
2023-01-17T06:23:14.286Z,89673.44
2023-01-17T06:25:43.862Z,89674.31
2023-01-17T06:28:12.385Z,89668.13
2023-01-17T06:30:39.644Z,89654.19
2023-01-17T06:33:06.664Z,89645.00
2023-01-17T06:35:33.998Z,89656.03
2023-01-17T06:38:00.883Z,89655.53
2023-01-17T06:40:29.065Z,89665.19
2023-01-17T06:43:03.261Z,89659.38
2023-01-17T06:45:31.757Z,89663.72
2023-01-17T06:48:00.660Z,89655.03
2023-01-17T06:50:27.892Z,89659.38
2023-01-17T06:53:00.541Z,89656.06
2023-01-17T06:55:29.886Z,89666.63
2023-01-17T06:57:58.431Z,89671.28
2023-01-17T07:00:26.531Z,89664.56
2023-01-17T07:02:54.055Z,89678.59
2023-01-17T07:05:21.414Z,89672.84
2023-01-17T07:07:48.696Z,89671.41
2023-01-17T07:10:16.137Z,89667.53
2023-01-17T07:12:43.074Z,89672.16
2023-01-17T07:15:10.646Z,89673.72
2023-01-17T07:17:37.779Z,89672.91
2023-01-17T07:20:05.154Z,89677.75
2023-01-17T07:22:32.153Z,89675.00
2023-01-17T07:24:58.974Z,89676.16
2023-01-17T07:27:26.886Z,89680.84
2023-01-17T07:29:54.353Z,89680.16
2023-01-17T07:32:21.474Z,89681.28
2023-01-17T07:34:49.191Z,89676.41
2023-01-17T07:37:16.155Z,89678.63
2023-01-17T07:39:43.160Z,89674.38
2023-01-17T07:42:10.035Z,89670.94
2023-01-17T07:44:36.853Z,89682.75
2023-01-17T07:47:03.695Z,89685.16
2023-01-17T07:49:30.585Z,89697.41
2023-01-17T07:51:57.499Z,89690.69
2023-01-17T07:54:24.445Z,89694.28
2023-01-17T07:56:51.320Z,89695.41
2023-01-17T07:59:18.341Z,89698.03
2023-01-17T08:01:45.532Z,89686.13
2023-01-17T08:04:12.737Z,89692.31
2023-01-17T08:06:43.297Z,89693.66
2023-01-17T08:09:10.235Z,89697.19
2023-01-17T08:11:37.240Z,89702.09
2023-01-17T08:14:04.123Z,89695.59
2023-01-17T08:16:30.994Z,89690.31
2023-01-17T08:18:57.920Z,89690.91
2023-01-17T08:21:24.963Z,89697.69
2023-01-17T08:23:56.202Z,89690.63
2023-01-17T08:26:23.239Z,89679.72
2023-01-17T08:28:58.534Z,89678.84
2023-01-17T08:31:25.449Z,89677.06
2023-01-17T08:33:52.403Z,89677.84
2023-01-17T08:36:19.361Z,89688.53
2023-01-17T08:38:46.263Z,89689.41
2023-01-17T08:41:13.155Z,89677.47
2023-01-17T08:43:40.040Z,89679.69
2023-01-17T08:46:06.950Z,89682.03
2023-01-17T08:48:33.835Z,89672.88
2023-01-17T08:51:02.324Z,89666.75
2023-01-17T08:53:29.150Z,89660.19
2023-01-17T08:56:00.956Z,89670.34
2023-01-17T08:58:30.689Z,89670.03
2023-01-17T09:01:06.128Z,89656.97
2023-01-17T09:03:34.772Z,89657.97
2023-01-17T09:06:07.441Z,89657.19
2023-01-17T09:08:35.312Z,89659.53
2023-01-17T09:11:12.616Z,89656.09
2023-01-17T09:13:40.412Z,89653.75
2023-01-17T09:16:08.393Z,89643.03
2023-01-17T09:18:36.446Z,89639.34
2023-01-17T09:21:14.752Z,89629.78
2023-01-17T09:23:42.296Z,89621.34
2023-01-17T09:26:28.269Z,89631.59
2023-01-17T09:28:56.049Z,89618.53
2023-01-17T09:31:23.904Z,89613.97
2023-01-17T09:33:52.047Z,89618.16
2023-01-17T09:36:19.610Z,89620.66
2023-01-17T09:38:47.130Z,89615.44
2023-01-17T09:41:24.977Z,89603.50
2023-01-17T09:44:07.734Z,89603.16
2023-01-17T09:46:41.400Z,89604.88
2023-01-17T09:49:30.522Z,89595.09
2023-01-17T09:51:58.023Z,89602.59
2023-01-17T09:54:32.890Z,89599.75
2023-01-17T09:57:13.630Z,89599.13
2023-01-17T10:00:04.793Z,89600.59
2023-01-17T10:03:15.768Z,89588.50
2023-01-17T10:06:07.339Z,89589.59
2023-01-17T10:08:34.174Z,89590.06
2023-01-17T10:11:13.071Z,89584.84
2023-01-17T10:13:53.954Z,89574.25
2023-01-17T10:16:42.081Z,89575.88
2023-01-17T10:19:31.477Z,89582.38
2023-01-17T10:22:40.212Z,89587.66
2023-01-17T10:25:35.638Z,89577.66
2023-01-17T10:28:12.376Z,89568.34
2023-01-17T10:30:43.861Z,89568.88
2023-01-17T10:33:41.669Z,89571.81
2023-01-17T10:36:15.953Z,89558.78
2023-01-17T10:38:47.625Z,89557.63
2023-01-17T10:41:29.491Z,89559.13
2023-01-17T10:44:20.023Z,89556.34
2023-01-17T10:47:10.924Z,89550.91
2023-01-17T10:49:46.018Z,89546.53
2023-01-17T10:52:19.468Z,89552.22
2023-01-17T10:54:55.223Z,89547.06
2023-01-17T10:57:25.207Z,89532.47
2023-01-17T10:59:58.069Z,89539.09
2023-01-17T11:02:30.067Z,89542.19
2023-01-17T11:05:01.255Z,89558.75
2023-01-17T11:07:29.752Z,89548.75
2023-01-17T11:09:59.314Z,89524.94
2023-01-17T11:12:45.225Z,89541.53
2023-01-17T11:15:12.074Z,89547.56
2023-01-17T11:17:44.769Z,89547.16
2023-01-17T11:20:28.247Z,89545.34
2023-01-17T11:23:18.530Z,89542.38
2023-01-17T11:25:57.791Z,89542.19
2023-01-17T11:28:27.797Z,89543.91
2023-01-17T11:31:02.548Z,89541.19
2023-01-17T11:33:44.509Z,89542.56
2023-01-17T11:36:29.950Z,89551.69
2023-01-17T11:38:58.186Z,89556.22
2023-01-17T11:41:26.489Z,89555.09
2023-01-17T11:43:58.798Z,89543.31
2023-01-17T11:46:27.133Z,89544.84
2023-01-17T11:48:59.201Z,89556.81
2023-01-17T11:51:33.386Z,89549.31
2023-01-17T11:54:18.641Z,89543.78
2023-01-17T11:56:45.594Z,89538.28
2023-01-17T11:59:29.735Z,89550.44
2023-01-17T12:02:02.259Z,89548.84
2023-01-17T12:04:43.522Z,89545.06
2023-01-17T12:07:29.265Z,89537.84
2023-01-17T12:10:03.509Z,89534.16
2023-01-17T12:12:44.105Z,89540.09
2023-01-17T12:16:07.832Z,89536.47
2023-01-17T12:18:40.752Z,89524.75
2023-01-17T12:21:17.638Z,89534.25
2023-01-17T12:24:02.439Z,89538.59
2023-01-17T12:27:09.679Z,89539.78
2023-01-17T12:29:54.717Z,89545.84
2023-01-17T12:32:30.661Z,89546.78
2023-01-17T12:35:15.501Z,89529.41
2023-01-17T12:37:52.692Z,89525.06
2023-01-17T12:40:37.530Z,89521.78
2023-01-17T12:43:22.304Z,89525.44
2023-01-17T12:45:52.468Z,89522.16
2023-01-17T12:48:22.401Z,89527.44
2023-01-17T12:51:24.755Z,89528.09
2023-01-17T12:54:09.705Z,89524.16
2023-01-17T12:56:54.185Z,89527.28
2023-01-17T12:59:48.354Z,89517.72
2023-01-17T13:02:52.516Z,89500.31
2023-01-17T13:05:45.218Z,89502.91
2023-01-17T13:08:20.915Z,89498.91
2023-01-17T13:11:02.485Z,89498.63
2023-01-17T13:13:31.039Z,89500.56
2023-01-17T13:16:03.139Z,89504.09
2023-01-17T13:18:30.305Z,89515.19
2023-01-17T13:21:29.052Z,89510.06
2023-01-17T13:23:59.024Z,89507.78
2023-01-17T13:26:49.062Z,89518.88
2023-01-17T13:29:33.898Z,89511.56
2023-01-17T13:32:28.668Z,89523.13
2023-01-17T13:35:21.262Z,89524.56
2023-01-17T13:38:26.216Z,89524.78
2023-01-17T13:41:11.263Z,89528.44
2023-01-17T13:43:41.477Z,89535.19
2023-01-17T13:46:08.408Z,89532.44
2023-01-17T13:48:36.867Z,89545.41
2023-01-17T13:51:05.951Z,89542.19
2023-01-17T13:53:35.833Z,89547.22
2023-01-17T13:56:26.270Z,89548.03
2023-01-17T13:59:01.768Z,89556.19
2023-01-17T14:01:34.619Z,89555.00
2023-01-17T14:04:04.743Z,89556.28
2023-01-17T14:06:40.493Z,89556.47
2023-01-17T14:09:31.566Z,89554.44
2023-01-17T14:12:24.364Z,89557.28
2023-01-17T14:14:54.634Z,89548.50
2023-01-17T14:17:21.517Z,89554.28
2023-01-17T14:19:53.357Z,89562.50
2023-01-17T14:22:20.167Z,89551.16
2023-01-17T14:25:03.170Z,89547.50
2023-01-17T14:27:34.139Z,89546.94
2023-01-17T14:30:05.777Z,89538.50
2023-01-17T14:32:35.625Z,89544.41
2023-01-17T14:35:03.956Z,89540.22
2023-01-17T14:37:46.397Z,89539.84
2023-01-17T14:40:25.121Z,89541.19
2023-01-17T14:43:23.251Z,89518.69
2023-01-17T14:45:57.732Z,89513.38
2023-01-17T14:48:24.871Z,89513.72
2023-01-17T14:50:54.000Z,89523.03
2023-01-17T14:53:24.347Z,89517.72
2023-01-17T14:55:53.666Z,89538.22
2023-01-17T14:58:25.980Z,89540.78
2023-01-17T15:00:57.935Z,89547.69
2023-01-17T15:03:25.037Z,89551.00
2023-01-17T15:05:54.175Z,89565.72
2023-01-17T15:08:25.208Z,89563.06
2023-01-17T15:11:03.612Z,89575.13
2023-01-17T15:13:44.208Z,89586.66
2023-01-17T15:16:25.103Z,89580.63
2023-01-17T15:18:53.730Z,89580.63
2023-01-17T15:21:24.945Z,89595.78
2023-01-17T15:23:57.398Z,89597.25
2023-01-17T15:26:27.363Z,89596.69
2023-01-17T15:29:07.011Z,89608.19
2023-01-17T15:31:49.634Z,89608.19
2023-01-17T15:34:31.989Z,89615.88
2023-01-17T15:37:07.907Z,89607.59
2023-01-17T15:39:37.563Z,89625.28
2023-01-17T15:42:19.002Z,89629.53
2023-01-17T15:44:49.201Z,89619.75
2023-01-17T15:47:34.342Z,89620.47
2023-01-17T15:50:22.166Z,89616.38
2023-01-17T15:52:50.555Z,89630.53
2023-01-17T15:55:26.388Z,89626.16
2023-01-17T15:57:53.345Z,89627.59
2023-01-17T16:00:27.831Z,89616.56
2023-01-17T16:02:55.420Z,89628.16
2023-01-17T16:05:22.885Z,89630.81
2023-01-17T16:07:52.348Z,89637.47
2023-01-17T16:10:20.774Z,89637.75
2023-01-17T16:12:49.718Z,89645.53
2023-01-17T16:15:18.395Z,89658.50
2023-01-17T16:17:48.581Z,89649.69
2023-01-17T16:20:21.342Z,89638.88
2023-01-17T16:22:49.735Z,89635.34
2023-01-17T16:25:19.531Z,89643.75
2023-01-17T16:27:47.027Z,89631.13
2023-01-17T16:30:17.615Z,89622.13
2023-01-17T16:32:46.312Z,89643.66
2023-01-17T16:35:19.298Z,89653.31
2023-01-17T16:37:53.310Z,89642.41
2023-01-17T16:40:22.583Z,89617.19
2023-01-17T16:42:49.442Z,89605.91
2023-01-17T16:45:17.821Z,89624.34
2023-01-17T16:47:46.453Z,89624.34
2023-01-17T16:50:15.515Z,89622.88
2023-01-17T16:52:42.812Z,89633.13
2023-01-17T16:55:14.721Z,89632.81
2023-01-17T16:57:41.771Z,89640.94
2023-01-17T17:00:10.480Z,89627.72
2023-01-17T17:02:37.557Z,89627.44
2023-01-17T17:05:04.998Z,89632.75
2023-01-17T17:07:32.049Z,89639.66
2023-01-17T17:10:00.404Z,89642.59
2023-01-17T17:12:27.331Z,89644.06
2023-01-17T17:14:54.204Z,89643.16
2023-01-17T17:17:21.127Z,89648.19
2023-01-17T17:19:48.054Z,89649.38
2023-01-17T17:22:15.021Z,89650.66
2023-01-17T17:24:42.035Z,89646.38
2023-01-17T17:27:08.904Z,89644.63
2023-01-17T17:29:35.837Z,89640.06
2023-01-17T17:32:02.728Z,89641.38
2023-01-17T17:34:29.680Z,89653.44
2023-01-17T17:36:56.596Z,89649.34
2023-01-17T17:39:23.439Z,89655.47
2023-01-17T17:41:50.311Z,89648.44
2023-01-17T17:44:17.156Z,89639.94
2023-01-17T17:46:44.101Z,89640.81
2023-01-17T17:49:11.033Z,89650.66
2023-01-17T17:51:39.934Z,89644.38
2023-01-17T17:54:12.086Z,89647.47
2023-01-17T17:56:40.038Z,89651.44
2023-01-17T17:59:08.961Z,89646.75
2023-01-17T18:01:36.262Z,89647.91
2023-01-17T18:04:04.373Z,89653.16
2023-01-17T18:06:31.297Z,89650.53
2023-01-17T18:08:58.238Z,89643.91
2023-01-17T18:11:26.943Z,89642.00
2023-01-17T18:13:55.701Z,89638.94
2023-01-17T18:16:26.104Z,89632.06
2023-01-17T18:18:55.664Z,89629.00
2023-01-17T18:21:25.510Z,89628.53
2023-01-17T18:23:57.777Z,89629.69
2023-01-17T18:26:29.871Z,89639.72
2023-01-17T18:28:58.174Z,89640.31
2023-01-17T18:31:27.671Z,89647.06
2023-01-17T18:33:56.303Z,89643.25
2023-01-17T18:36:24.340Z,89647.69
2023-01-17T18:38:52.334Z,89640.31
2023-01-17T18:41:28.458Z,89641.50
2023-01-17T18:43:55.606Z,89630.31
2023-01-17T18:46:23.214Z,89636.34
2023-01-17T18:48:50.265Z,89638.22
2023-01-17T18:51:20.363Z,89638.81
2023-01-17T18:53:47.335Z,89637.50
2023-01-17T18:56:20.348Z,89647.63
2023-01-17T18:58:49.500Z,89651.75
2023-01-17T19:01:22.064Z,89653.28
2023-01-17T19:03:51.948Z,89657.38
2023-01-17T19:06:22.310Z,89660.94
2023-01-17T19:08:52.229Z,89654.34
2023-01-17T19:11:23.693Z,89658.72
2023-01-17T19:13:50.744Z,89653.13
2023-01-17T19:16:21.104Z,89654.44
2023-01-17T19:18:48.081Z,89653.25
2023-01-17T19:21:17.399Z,89653.88
2023-01-17T19:23:44.873Z,89654.44
2023-01-17T19:26:13.792Z,89665.03
2023-01-17T19:28:42.672Z,89661.81
2023-01-17T19:31:16.673Z,89663.88
2023-01-17T19:33:45.640Z,89676.66
2023-01-17T19:36:18.402Z,89673.28
2023-01-17T19:39:03.101Z,89672.56
2023-01-17T19:41:32.039Z,89672.25
2023-01-17T19:44:01.594Z,89674.44
2023-01-17T19:46:29.273Z,89676.50
2023-01-17T19:48:57.803Z,89684.16
2023-01-17T19:51:25.560Z,89684.31
2023-01-17T19:53:52.404Z,89676.69
2023-01-17T19:56:22.519Z,89692.84
2023-01-17T19:58:49.560Z,89691.06
2023-01-17T20:01:20.013Z,89687.69
2023-01-17T20:03:47.452Z,89682.09
2023-01-17T20:06:20.152Z,89690.31
2023-01-17T20:08:47.001Z,89682.81
2023-01-17T20:11:22.722Z,89685.00
2023-01-17T20:13:52.717Z,89686.34
2023-01-17T20:16:23.430Z,89679.16
2023-01-17T20:18:50.661Z,89680.78
2023-01-17T20:21:20.606Z,89682.53
2023-01-17T20:23:48.505Z,89691.94
2023-01-17T20:26:17.881Z,89686.81
2023-01-17T20:28:47.005Z,89689.13
2023-01-17T20:31:23.111Z,89697.06
2023-01-17T20:33:50.994Z,89694.75
2023-01-17T20:36:20.202Z,89695.31
2023-01-17T20:38:47.250Z,89701.81
2023-01-17T20:41:20.830Z,89705.63
2023-01-17T20:43:52.065Z,89707.09
2023-01-17T20:46:20.852Z,89703.56
2023-01-17T20:48:50.661Z,89703.28
2023-01-17T20:51:22.031Z,89704.72
2023-01-17T20:53:54.362Z,89706.19
2023-01-17T20:56:21.201Z,89702.41
2023-01-17T20:58:49.579Z,89704.59
2023-01-17T21:01:18.992Z,89698.41
2023-01-17T21:03:47.251Z,89703.13
2023-01-17T21:06:14.860Z,89705.91
2023-01-17T21:08:45.158Z,89714.00
2023-01-17T21:11:14.313Z,89701.66
2023-01-17T21:13:41.629Z,89710.03
2023-01-17T21:16:10.644Z,89704.44
2023-01-17T21:18:37.750Z,89710.34
2023-01-17T21:21:16.724Z,89705.78
2023-01-17T21:23:44.602Z,89691.94
2023-01-17T21:26:16.763Z,89702.69
2023-01-17T21:28:45.983Z,89706.50
2023-01-17T21:31:31.102Z,89699.28
2023-01-17T21:33:59.461Z,89691.19
2023-01-17T21:36:31.746Z,89695.28
2023-01-17T21:39:00.222Z,89694.00
2023-01-17T21:41:29.869Z,89704.41
2023-01-17T21:43:58.766Z,89686.94
2023-01-17T21:46:26.788Z,89690.72
2023-01-17T21:48:53.786Z,89690.50
2023-01-17T21:51:20.761Z,89687.94
2023-01-17T21:53:47.689Z,89689.41
2023-01-17T21:56:14.988Z,89690.88
2023-01-17T21:58:41.813Z,89690.94
2023-01-17T22:01:13.394Z,89678.47
2023-01-17T22:03:40.476Z,89677.59
2023-01-17T22:06:07.517Z,89679.63
2023-01-17T22:08:35.108Z,89683.69
2023-01-17T22:11:07.398Z,89688.13
2023-01-17T22:13:35.160Z,89674.59
2023-01-17T22:16:04.551Z,89677.84
2023-01-17T22:18:33.240Z,89670.09
2023-01-17T22:21:04.566Z,89671.13
2023-01-17T22:23:31.495Z,89678.03
2023-01-17T22:26:06.244Z,89681.97
2023-01-17T22:28:33.820Z,89676.13
2023-01-17T22:31:11.160Z,89684.44
2023-01-17T22:33:39.667Z,89685.63
2023-01-17T22:36:07.702Z,89687.88
2023-01-17T22:38:35.379Z,89690.81
2023-01-17T22:41:05.355Z,89686.44
2023-01-17T22:43:32.239Z,89689.25
2023-01-17T22:46:00.064Z,89689.66
2023-01-17T22:48:27.009Z,89692.53
2023-01-17T22:50:58.311Z,89701.38
2023-01-17T22:53:25.194Z,89701.19
2023-01-17T22:56:02.229Z,89700.00
2023-01-17T22:58:29.393Z,89701.19
2023-01-17T23:01:03.704Z,89714.53
2023-01-17T23:03:30.616Z,89692.91
2023-01-17T23:05:57.564Z,89699.16
2023-01-17T23:08:24.738Z,89696.47
2023-01-17T23:10:51.622Z,89701.75
2023-01-17T23:13:18.504Z,89698.84
2023-01-17T23:15:45.430Z,89698.16
2023-01-17T23:18:12.324Z,89704.47
2023-01-17T23:20:39.293Z,89706.84
2023-01-17T23:23:06.262Z,89708.34
2023-01-17T23:25:33.166Z,89712.59
2023-01-17T23:27:59.995Z,89713.47
2023-01-17T23:30:33.410Z,89709.66
2023-01-17T23:33:08.810Z,89708.78
2023-01-17T23:35:41.626Z,89706.03
2023-01-17T23:38:13.808Z,89703.75
2023-01-17T23:40:41.359Z,89714.72
2023-01-17T23:43:11.759Z,89713.44
2023-01-17T23:45:39.228Z,89719.94
2023-01-17T23:48:07.717Z,89721.13
2023-01-17T23:50:34.776Z,89721.72
2023-01-17T23:53:02.664Z,89715.53
2023-01-17T23:55:29.500Z,89707.94
2023-01-17T23:57:56.443Z,89716.88
